sensor_id;sensor_type;location;lat;lon;timestamp;P1;durP1;ratioP1;P2;durP2;ratioP2
3141;SDS011;1581;51.568;6.998;2023-08-24T00:00:55;10.93;;;5.60;;
3141;SDS011;1581;51.568;6.998;2023-08-24T00:03:24;13.63;;;6.32;;
3141;SDS011;1581;51.568;6.998;2023-08-24T00:05:52;12.60;;;5.70;;
3141;SDS011;1581;51.568;6.998;2023-08-24T00:08:20;11.77;;;6.20;;
3141;SDS011;1581;51.568;6.998;2023-08-24T00:10:48;12.80;;;6.03;;
3141;SDS011;1581;51.568;6.998;2023-08-24T00:13:16;10.82;;;6.35;;
3141;SDS011;1581;51.568;6.998;2023-08-24T00:15:44;10.73;;;6.22;;
3141;SDS011;1581;51.568;6.998;2023-08-24T00:18:12;12.85;;;7.72;;
3141;SDS011;1581;51.568;6.998;2023-08-24T00:20:41;11.02;;;6.50;;
3141;SDS011;1581;51.568;6.998;2023-08-24T00:23:09;12.32;;;6.95;;
3141;SDS011;1581;51.568;6.998;2023-08-24T00:25:38;10.35;;;6.93;;
3141;SDS011;1581;51.568;6.998;2023-08-24T00:28:07;8.38;;;5.97;;
3141;SDS011;1581;51.568;6.998;2023-08-24T00:30:34;10.18;;;6.20;;
3141;SDS011;1581;51.568;6.998;2023-08-24T00:33:03;13.32;;;6.35;;
3141;SDS011;1581;51.568;6.998;2023-08-24T00:35:31;9.82;;;5.10;;
3141;SDS011;1581;51.568;6.998;2023-08-24T00:38:00;10.85;;;6.22;;
3141;SDS011;1581;51.568;6.998;2023-08-24T00:40:28;12.70;;;6.05;;
3141;SDS011;1581;51.568;6.998;2023-08-24T00:42:57;10.48;;;5.88;;
3141;SDS011;1581;51.568;6.998;2023-08-24T00:45:25;8.02;;;6.07;;
3141;SDS011;1581;51.568;6.998;2023-08-24T00:47:53;11.80;;;6.45;;
3141;SDS011;1581;51.568;6.998;2023-08-24T00:50:21;10.05;;;6.47;;
3141;SDS011;1581;51.568;6.998;2023-08-24T00:52:48;10.48;;;6.45;;
3141;SDS011;1581;51.568;6.998;2023-08-24T00:55:21;7.13;;;5.72;;
3141;SDS011;1581;51.568;6.998;2023-08-24T00:57:49;13.23;;;6.20;;
3141;SDS011;1581;51.568;6.998;2023-08-24T01:00:18;7.22;;;5.65;;
3141;SDS011;1581;51.568;6.998;2023-08-24T01:02:46;7.63;;;5.97;;
3141;SDS011;1581;51.568;6.998;2023-08-24T01:05:14;7.45;;;5.38;;
3141;SDS011;1581;51.568;6.998;2023-08-24T01:07:42;14.27;;;6.18;;
3141;SDS011;1581;51.568;6.998;2023-08-24T01:10:14;8.73;;;6.32;;
3141;SDS011;1581;51.568;6.998;2023-08-24T01:12:48;8.32;;;6.35;;
3141;SDS011;1581;51.568;6.998;2023-08-24T01:15:31;12.27;;;6.60;;
3141;SDS011;1581;51.568;6.998;2023-08-24T01:18:06;8.85;;;6.13;;
3141;SDS011;1581;51.568;6.998;2023-08-24T01:20:40;8.68;;;5.80;;
3141;SDS011;1581;51.568;6.998;2023-08-24T01:23:14;7.35;;;6.05;;
3141;SDS011;1581;51.568;6.998;2023-08-24T01:25:59;14.25;;;6.13;;
3141;SDS011;1581;51.568;6.998;2023-08-24T01:28:37;7.22;;;5.82;;
3141;SDS011;1581;51.568;6.998;2023-08-24T01:31:05;9.63;;;6.10;;
3141;SDS011;1581;51.568;6.998;2023-08-24T01:33:33;7.43;;;6.20;;
3141;SDS011;1581;51.568;6.998;2023-08-24T01:36:01;11.20;;;5.57;;
3141;SDS011;1581;51.568;6.998;2023-08-24T01:38:30;9.17;;;6.03;;
3141;SDS011;1581;51.568;6.998;2023-08-24T01:41:02;10.00;;;5.50;;
3141;SDS011;1581;51.568;6.998;2023-08-24T01:43:39;5.90;;;5.30;;
3141;SDS011;1581;51.568;6.998;2023-08-24T01:46:08;7.53;;;6.30;;
3141;SDS011;1581;51.568;6.998;2023-08-24T01:48:41;10.17;;;6.23;;
3141;SDS011;1581;51.568;6.998;2023-08-24T01:51:10;7.82;;;5.50;;
3141;SDS011;1581;51.568;6.998;2023-08-24T01:53:39;11.53;;;5.57;;
3141;SDS011;1581;51.568;6.998;2023-08-24T01:56:09;9.15;;;6.05;;
3141;SDS011;1581;51.568;6.998;2023-08-24T01:58:38;10.80;;;6.20;;
3141;SDS011;1581;51.568;6.998;2023-08-24T02:01:06;8.53;;;6.23;;
3141;SDS011;1581;51.568;6.998;2023-08-24T02:03:35;7.97;;;5.50;;
3141;SDS011;1581;51.568;6.998;2023-08-24T02:06:04;9.18;;;5.55;;
3141;SDS011;1581;51.568;6.998;2023-08-24T02:08:32;8.27;;;5.93;;
3141;SDS011;1581;51.568;6.998;2023-08-24T02:11:00;8.90;;;5.20;;
3141;SDS011;1581;51.568;6.998;2023-08-24T02:13:29;9.27;;;5.40;;
3141;SDS011;1581;51.568;6.998;2023-08-24T02:16:01;6.63;;;5.63;;
3141;SDS011;1581;51.568;6.998;2023-08-24T02:18:30;5.57;;;5.10;;
3141;SDS011;1581;51.568;6.998;2023-08-24T02:20:58;10.60;;;6.20;;
3141;SDS011;1581;51.568;6.998;2023-08-24T02:23:25;11.05;;;6.78;;
3141;SDS011;1581;51.568;6.998;2023-08-24T02:25:53;10.13;;;6.10;;
3141;SDS011;1581;51.568;6.998;2023-08-24T02:28:23;13.50;;;6.07;;
3141;SDS011;1581;51.568;6.998;2023-08-24T02:30:52;8.60;;;5.90;;
3141;SDS011;1581;51.568;6.998;2023-08-24T02:33:20;8.50;;;5.70;;
3141;SDS011;1581;51.568;6.998;2023-08-24T02:35:48;14.32;;;5.57;;
3141;SDS011;1581;51.568;6.998;2023-08-24T02:38:16;8.00;;;5.77;;
3141;SDS011;1581;51.568;6.998;2023-08-24T02:40:43;11.43;;;5.70;;
3141;SDS011;1581;51.568;6.998;2023-08-24T02:43:11;10.75;;;6.25;;
3141;SDS011;1581;51.568;6.998;2023-08-24T02:45:39;9.77;;;6.83;;
3141;SDS011;1581;51.568;6.998;2023-08-24T02:48:08;7.27;;;6.57;;
3141;SDS011;1581;51.568;6.998;2023-08-24T02:50:36;7.37;;;6.10;;
3141;SDS011;1581;51.568;6.998;2023-08-24T02:53:04;7.30;;;6.07;;
3141;SDS011;1581;51.568;6.998;2023-08-24T02:55:32;7.77;;;6.97;;
3141;SDS011;1581;51.568;6.998;2023-08-24T02:58:00;7.20;;;6.50;;
3141;SDS011;1581;51.568;6.998;2023-08-24T03:00:28;11.40;;;7.20;;
3141;SDS011;1581;51.568;6.998;2023-08-24T03:02:56;12.43;;;6.40;;
3141;SDS011;1581;51.568;6.998;2023-08-24T03:05:25;8.77;;;6.78;;
3141;SDS011;1581;51.568;6.998;2023-08-24T03:07:53;10.27;;;7.27;;
3141;SDS011;1581;51.568;6.998;2023-08-24T03:10:21;9.07;;;7.07;;
3141;SDS011;1581;51.568;6.998;2023-08-24T03:12:49;18.03;;;6.47;;
3141;SDS011;1581;51.568;6.998;2023-08-24T03:15:16;8.90;;;5.80;;
3141;SDS011;1581;51.568;6.998;2023-08-24T03:17:46;10.20;;;7.40;;
3141;SDS011;1581;51.568;6.998;2023-08-24T03:20:14;10.23;;;6.30;;
3141;SDS011;1581;51.568;6.998;2023-08-24T03:22:43;10.17;;;6.17;;
3141;SDS011;1581;51.568;6.998;2023-08-24T03:25:11;9.98;;;6.70;;
3141;SDS011;1581;51.568;6.998;2023-08-24T03:27:39;10.73;;;7.47;;
3141;SDS011;1581;51.568;6.998;2023-08-24T03:30:07;7.13;;;5.78;;
3141;SDS011;1581;51.568;6.998;2023-08-24T03:32:35;11.80;;;6.40;;
3141;SDS011;1581;51.568;6.998;2023-08-24T03:35:04;8.93;;;6.30;;
3141;SDS011;1581;51.568;6.998;2023-08-24T03:37:32;10.97;;;6.47;;
3141;SDS011;1581;51.568;6.998;2023-08-24T03:40:02;6.38;;;5.72;;
3141;SDS011;1581;51.568;6.998;2023-08-24T03:42:32;10.87;;;8.77;;
3141;SDS011;1581;51.568;6.998;2023-08-24T03:45:00;12.07;;;6.47;;
3141;SDS011;1581;51.568;6.998;2023-08-24T03:47:28;7.97;;;6.30;;
3141;SDS011;1581;51.568;6.998;2023-08-24T03:49:57;18.73;;;8.20;;
3141;SDS011;1581;51.568;6.998;2023-08-24T03:52:28;8.98;;;6.97;;
3141;SDS011;1581;51.568;6.998;2023-08-24T03:54:56;11.80;;;6.90;;
3141;SDS011;1581;51.568;6.998;2023-08-24T03:57:25;7.00;;;6.30;;
3141;SDS011;1581;51.568;6.998;2023-08-24T03:59:54;9.20;;;7.03;;
3141;SDS011;1581;51.568;6.998;2023-08-24T04:02:22;8.90;;;6.82;;
3141;SDS011;1581;51.568;6.998;2023-08-24T04:04:50;9.88;;;6.78;;
3141;SDS011;1581;51.568;6.998;2023-08-24T04:07:18;9.02;;;7.57;;
3141;SDS011;1581;51.568;6.998;2023-08-24T04:09:46;18.67;;;7.65;;
3141;SDS011;1581;51.568;6.998;2023-08-24T04:12:14;9.70;;;8.70;;
3141;SDS011;1581;51.568;6.998;2023-08-24T04:14:43;12.75;;;8.88;;
3141;SDS011;1581;51.568;6.998;2023-08-24T04:17:11;10.05;;;8.07;;
3141;SDS011;1581;51.568;6.998;2023-08-24T04:19:39;11.48;;;9.23;;
3141;SDS011;1581;51.568;6.998;2023-08-24T04:22:07;9.95;;;8.85;;
3141;SDS011;1581;51.568;6.998;2023-08-24T04:24:35;13.15;;;9.50;;
3141;SDS011;1581;51.568;6.998;2023-08-24T04:27:03;12.40;;;9.77;;
3141;SDS011;1581;51.568;6.998;2023-08-24T04:29:31;13.73;;;9.60;;
3141;SDS011;1581;51.568;6.998;2023-08-24T04:32:01;11.60;;;10.00;;
3141;SDS011;1581;51.568;6.998;2023-08-24T04:34:29;13.52;;;10.45;;
3141;SDS011;1581;51.568;6.998;2023-08-24T04:36:57;11.00;;;9.32;;
3141;SDS011;1581;51.568;6.998;2023-08-24T04:39:26;14.02;;;10.25;;
3141;SDS011;1581;51.568;6.998;2023-08-24T04:41:55;10.93;;;8.52;;
3141;SDS011;1581;51.568;6.998;2023-08-24T04:44:23;14.10;;;9.57;;
3141;SDS011;1581;51.568;6.998;2023-08-24T04:46:51;16.98;;;10.63;;
3141;SDS011;1581;51.568;6.998;2023-08-24T04:49:20;13.68;;;11.40;;
3141;SDS011;1581;51.568;6.998;2023-08-24T04:51:48;13.93;;;10.68;;
3141;SDS011;1581;51.568;6.998;2023-08-24T04:54:19;18.58;;;10.00;;
3141;SDS011;1581;51.568;6.998;2023-08-24T04:56:46;18.58;;;10.77;;
3141;SDS011;1581;51.568;6.998;2023-08-24T04:59:14;14.38;;;10.80;;
3141;SDS011;1581;51.568;6.998;2023-08-24T05:01:42;19.63;;;11.07;;
3141;SDS011;1581;51.568;6.998;2023-08-24T05:04:10;17.05;;;11.68;;
3141;SDS011;1581;51.568;6.998;2023-08-24T05:06:39;14.50;;;11.45;;
3141;SDS011;1581;51.568;6.998;2023-08-24T05:09:07;14.77;;;11.73;;
3141;SDS011;1581;51.568;6.998;2023-08-24T05:11:34;16.23;;;11.35;;
3141;SDS011;1581;51.568;6.998;2023-08-24T05:14:02;14.50;;;11.25;;
3141;SDS011;1581;51.568;6.998;2023-08-24T05:16:30;14.52;;;11.07;;
3141;SDS011;1581;51.568;6.998;2023-08-24T05:18:59;14.48;;;11.13;;
3141;SDS011;1581;51.568;6.998;2023-08-24T05:21:28;15.13;;;11.40;;
3141;SDS011;1581;51.568;6.998;2023-08-24T05:23:57;12.57;;;9.98;;
3141;SDS011;1581;51.568;6.998;2023-08-24T05:26:25;11.32;;;8.57;;
3141;SDS011;1581;51.568;6.998;2023-08-24T05:28:53;11.88;;;10.07;;
3141;SDS011;1581;51.568;6.998;2023-08-24T05:31:20;13.02;;;9.48;;
3141;SDS011;1581;51.568;6.998;2023-08-24T05:33:48;17.25;;;10.90;;
3141;SDS011;1581;51.568;6.998;2023-08-24T05:36:16;17.88;;;10.18;;
3141;SDS011;1581;51.568;6.998;2023-08-24T05:38:44;15.93;;;10.32;;
3141;SDS011;1581;51.568;6.998;2023-08-24T05:41:14;14.07;;;9.52;;
3141;SDS011;1581;51.568;6.998;2023-08-24T05:43:42;24.75;;;9.82;;
3141;SDS011;1581;51.568;6.998;2023-08-24T05:46:10;14.57;;;10.48;;
3141;SDS011;1581;51.568;6.998;2023-08-24T05:48:37;15.50;;;9.77;;
3141;SDS011;1581;51.568;6.998;2023-08-24T05:51:05;15.95;;;10.18;;
3141;SDS011;1581;51.568;6.998;2023-08-24T05:53:35;22.65;;;10.18;;
3141;SDS011;1581;51.568;6.998;2023-08-24T05:56:03;11.18;;;8.80;;
3141;SDS011;1581;51.568;6.998;2023-08-24T05:58:33;13.90;;;8.88;;
3141;SDS011;1581;51.568;6.998;2023-08-24T06:01:00;15.30;;;8.38;;
3141;SDS011;1581;51.568;6.998;2023-08-24T06:03:28;19.27;;;9.20;;
3141;SDS011;1581;51.568;6.998;2023-08-24T06:06:00;16.35;;;9.85;;
3141;SDS011;1581;51.568;6.998;2023-08-24T06:08:29;9.75;;;7.43;;
3141;SDS011;1581;51.568;6.998;2023-08-24T06:10:57;16.42;;;9.32;;
3141;SDS011;1581;51.568;6.998;2023-08-24T06:13:25;21.85;;;9.13;;
3141;SDS011;1581;51.568;6.998;2023-08-24T06:15:55;16.00;;;8.52;;
3141;SDS011;1581;51.568;6.998;2023-08-24T06:18:23;16.40;;;9.68;;
3141;SDS011;1581;51.568;6.998;2023-08-24T06:20:50;14.15;;;9.63;;
3141;SDS011;1581;51.568;6.998;2023-08-24T06:23:18;14.25;;;8.00;;
3141;SDS011;1581;51.568;6.998;2023-08-24T06:25:46;10.80;;;8.00;;
3141;SDS011;1581;51.568;6.998;2023-08-24T06:28:14;13.63;;;8.10;;
3141;SDS011;1581;51.568;6.998;2023-08-24T06:30:44;11.13;;;6.97;;
3141;SDS011;1581;51.568;6.998;2023-08-24T06:33:16;13.60;;;8.85;;
3141;SDS011;1581;51.568;6.998;2023-08-24T06:35:44;12.85;;;8.93;;
3141;SDS011;1581;51.568;6.998;2023-08-24T06:38:12;13.60;;;8.77;;
3141;SDS011;1581;51.568;6.998;2023-08-24T06:40:42;11.70;;;7.43;;
3141;SDS011;1581;51.568;6.998;2023-08-24T06:43:10;13.75;;;8.77;;
3141;SDS011;1581;51.568;6.998;2023-08-24T06:45:39;16.85;;;9.52;;
3141;SDS011;1581;51.568;6.998;2023-08-24T06:48:07;14.48;;;7.43;;
3141;SDS011;1581;51.568;6.998;2023-08-24T06:50:36;9.40;;;6.85;;
3141;SDS011;1581;51.568;6.998;2023-08-24T06:53:04;12.63;;;7.80;;
3141;SDS011;1581;51.568;6.998;2023-08-24T06:55:32;11.05;;;7.88;;
3141;SDS011;1581;51.568;6.998;2023-08-24T06:58:01;14.73;;;7.80;;
3141;SDS011;1581;51.568;6.998;2023-08-24T07:00:30;11.23;;;6.85;;
3141;SDS011;1581;51.568;6.998;2023-08-24T07:02:59;10.50;;;6.63;;
3141;SDS011;1581;51.568;6.998;2023-08-24T07:05:27;16.23;;;8.57;;
3141;SDS011;1581;51.568;6.998;2023-08-24T07:07:56;10.15;;;7.80;;
3141;SDS011;1581;51.568;6.998;2023-08-24T07:10:25;10.30;;;7.50;;
3141;SDS011;1581;51.568;6.998;2023-08-24T07:12:53;11.48;;;7.15;;
3141;SDS011;1581;51.568;6.998;2023-08-24T07:15:21;7.70;;;6.60;;
3141;SDS011;1581;51.568;6.998;2023-08-24T07:17:49;16.40;;;6.35;;
3141;SDS011;1581;51.568;6.998;2023-08-24T07:20:17;16.55;;;7.65;;
3141;SDS011;1581;51.568;6.998;2023-08-24T07:22:46;13.25;;;6.40;;
3141;SDS011;1581;51.568;6.998;2023-08-24T07:25:17;6.85;;;5.45;;
3141;SDS011;1581;51.568;6.998;2023-08-24T07:27:45;9.35;;;5.70;;
3141;SDS011;1581;51.568;6.998;2023-08-24T07:30:21;13.10;;;5.57;;
3141;SDS011;1581;51.568;6.998;2023-08-24T07:32:49;7.43;;;4.97;;
3141;SDS011;1581;51.568;6.998;2023-08-24T07:35:17;13.65;;;6.43;;
3141;SDS011;1581;51.568;6.998;2023-08-24T07:37:46;12.57;;;6.60;;
3141;SDS011;1581;51.568;6.998;2023-08-24T07:40:15;12.23;;;6.43;;
3141;SDS011;1581;51.568;6.998;2023-08-24T07:42:45;9.82;;;5.93;;
3141;SDS011;1581;51.568;6.998;2023-08-24T07:45:16;10.85;;;6.18;;
3141;SDS011;1581;51.568;6.998;2023-08-24T07:47:44;10.68;;;5.43;;
3141;SDS011;1581;51.568;6.998;2023-08-24T07:50:12;8.05;;;5.13;;
3141;SDS011;1581;51.568;6.998;2023-08-24T07:52:41;15.57;;;6.10;;
3141;SDS011;1581;51.568;6.998;2023-08-24T07:55:09;7.85;;;4.75;;
3141;SDS011;1581;51.568;6.998;2023-08-24T07:57:39;6.93;;;4.97;;
3141;SDS011;1581;51.568;6.998;2023-08-24T08:00:07;8.85;;;5.20;;
3141;SDS011;1581;51.568;6.998;2023-08-24T08:02:36;9.75;;;4.35;;
3141;SDS011;1581;51.568;6.998;2023-08-24T08:05:05;10.48;;;5.50;;
3141;SDS011;1581;51.568;6.998;2023-08-24T08:07:35;10.25;;;4.65;;
3141;SDS011;1581;51.568;6.998;2023-08-24T08:10:05;10.55;;;4.55;;
3141;SDS011;1581;51.568;6.998;2023-08-24T08:12:37;7.88;;;4.82;;
3141;SDS011;1581;51.568;6.998;2023-08-24T08:15:08;11.75;;;5.05;;
3141;SDS011;1581;51.568;6.998;2023-08-24T08:17:37;10.32;;;4.63;;
3141;SDS011;1581;51.568;6.998;2023-08-24T08:20:13;7.03;;;3.80;;
3141;SDS011;1581;51.568;6.998;2023-08-24T08:22:41;5.72;;;3.95;;
3141;SDS011;1581;51.568;6.998;2023-08-24T08:25:09;7.38;;;4.30;;
3141;SDS011;1581;51.568;6.998;2023-08-24T08:27:38;7.28;;;3.63;;
3141;SDS011;1581;51.568;6.998;2023-08-24T08:30:07;5.93;;;3.90;;
3141;SDS011;1581;51.568;6.998;2023-08-24T08:32:35;5.57;;;4.75;;
3141;SDS011;1581;51.568;6.998;2023-08-24T08:35:04;4.68;;;4.07;;
3141;SDS011;1581;51.568;6.998;2023-08-24T08:37:35;9.20;;;4.70;;
3141;SDS011;1581;51.568;6.998;2023-08-24T08:40:03;8.63;;;4.85;;
3141;SDS011;1581;51.568;6.998;2023-08-24T08:42:32;12.07;;;4.05;;
3141;SDS011;1581;51.568;6.998;2023-08-24T08:45:03;7.60;;;3.90;;
3141;SDS011;1581;51.568;6.998;2023-08-24T08:47:36;6.45;;;3.95;;
3141;SDS011;1581;51.568;6.998;2023-08-24T08:50:06;8.10;;;2.88;;
3141;SDS011;1581;51.568;6.998;2023-08-24T08:52:35;5.15;;;3.47;;
3141;SDS011;1581;51.568;6.998;2023-08-24T08:55:04;5.55;;;4.30;;
3141;SDS011;1581;51.568;6.998;2023-08-24T08:57:35;4.97;;;3.58;;
3141;SDS011;1581;51.568;6.998;2023-08-24T09:00:07;10.23;;;3.78;;
3141;SDS011;1581;51.568;6.998;2023-08-24T09:02:38;10.18;;;4.60;;
3141;SDS011;1581;51.568;6.998;2023-08-24T09:05:08;7.20;;;4.15;;
3141;SDS011;1581;51.568;6.998;2023-08-24T09:07:37;7.63;;;3.95;;
3141;SDS011;1581;51.568;6.998;2023-08-24T09:10:07;13.23;;;4.10;;
3141;SDS011;1581;51.568;6.998;2023-08-24T09:12:35;6.10;;;3.15;;
3141;SDS011;1581;51.568;6.998;2023-08-24T09:15:03;5.28;;;3.33;;
3141;SDS011;1581;51.568;6.998;2023-08-24T09:17:34;4.30;;;3.00;;
3141;SDS011;1581;51.568;6.998;2023-08-24T09:20:05;3.88;;;3.05;;
3141;SDS011;1581;51.568;6.998;2023-08-24T09:22:35;5.15;;;2.70;;
3141;SDS011;1581;51.568;6.998;2023-08-24T09:25:06;4.15;;;3.00;;
3141;SDS011;1581;51.568;6.998;2023-08-24T09:27:36;9.40;;;4.40;;
3141;SDS011;1581;51.568;6.998;2023-08-24T09:30:04;8.52;;;3.42;;
3141;SDS011;1581;51.568;6.998;2023-08-24T09:32:35;7.82;;;3.10;;
3141;SDS011;1581;51.568;6.998;2023-08-24T09:35:03;6.13;;;3.28;;
3141;SDS011;1581;51.568;6.998;2023-08-24T09:37:35;4.78;;;2.85;;
3141;SDS011;1581;51.568;6.998;2023-08-24T09:40:04;6.35;;;3.85;;
3141;SDS011;1581;51.568;6.998;2023-08-24T09:42:37;7.65;;;3.58;;
3141;SDS011;1581;51.568;6.998;2023-08-24T09:45:13;7.05;;;3.50;;
3141;SDS011;1581;51.568;6.998;2023-08-24T09:47:45;4.53;;;3.17;;
3141;SDS011;1581;51.568;6.998;2023-08-24T09:50:18;6.50;;;2.60;;
3141;SDS011;1581;51.568;6.998;2023-08-24T09:52:47;7.32;;;3.40;;
3141;SDS011;1581;51.568;6.998;2023-08-24T09:55:21;3.72;;;2.72;;
3141;SDS011;1581;51.568;6.998;2023-08-24T09:57:53;8.43;;;3.00;;
3141;SDS011;1581;51.568;6.998;2023-08-24T10:00:27;4.90;;;2.63;;
3141;SDS011;1581;51.568;6.998;2023-08-24T10:02:57;3.67;;;2.88;;
3141;SDS011;1581;51.568;6.998;2023-08-24T10:05:29;3.30;;;2.63;;
3141;SDS011;1581;51.568;6.998;2023-08-24T10:08:00;3.55;;;2.35;;
3141;SDS011;1581;51.568;6.998;2023-08-24T10:10:28;4.30;;;3.08;;
3141;SDS011;1581;51.568;6.998;2023-08-24T10:13:00;4.38;;;2.70;;
3141;SDS011;1581;51.568;6.998;2023-08-24T10:15:36;7.50;;;2.70;;
3141;SDS011;1581;51.568;6.998;2023-08-24T10:18:11;7.47;;;3.45;;
3141;SDS011;1581;51.568;6.998;2023-08-24T10:20:41;7.18;;;2.83;;
3141;SDS011;1581;51.568;6.998;2023-08-24T10:23:10;5.70;;;3.17;;
3141;SDS011;1581;51.568;6.998;2023-08-24T10:25:41;2.38;;;2.17;;
3141;SDS011;1581;51.568;6.998;2023-08-24T10:28:13;7.15;;;3.13;;
3141;SDS011;1581;51.568;6.998;2023-08-24T10:30:44;6.65;;;3.00;;
3141;SDS011;1581;51.568;6.998;2023-08-24T10:33:15;5.15;;;2.67;;
3141;SDS011;1581;51.568;6.998;2023-08-24T10:35:50;10.68;;;2.88;;
3141;SDS011;1581;51.568;6.998;2023-08-24T10:38:24;5.35;;;2.78;;
3141;SDS011;1581;51.568;6.998;2023-08-24T10:40:54;5.75;;;2.88;;
3141;SDS011;1581;51.568;6.998;2023-08-24T10:43:29;11.82;;;2.95;;
3141;SDS011;1581;51.568;6.998;2023-08-24T10:46:02;2.92;;;2.40;;
3141;SDS011;1581;51.568;6.998;2023-08-24T10:51:25;6.07;;;3.53;;
3141;SDS011;1581;51.568;6.998;2023-08-24T10:53:55;4.85;;;2.88;;
3141;SDS011;1581;51.568;6.998;2023-08-24T10:56:35;6.97;;;2.85;;
3141;SDS011;1581;51.568;6.998;2023-08-24T10:59:11;3.40;;;3.10;;
3141;SDS011;1581;51.568;6.998;2023-08-24T11:01:42;6.00;;;3.20;;
3141;SDS011;1581;51.568;6.998;2023-08-24T11:04:23;7.28;;;2.78;;
3141;SDS011;1581;51.568;6.998;2023-08-24T11:06:52;5.72;;;2.70;;
3141;SDS011;1581;51.568;6.998;2023-08-24T11:09:21;5.60;;;2.83;;
3141;SDS011;1581;51.568;6.998;2023-08-24T11:11:56;4.30;;;3.10;;
3141;SDS011;1581;51.568;6.998;2023-08-24T11:14:26;3.75;;;2.45;;
3141;SDS011;1581;51.568;6.998;2023-08-24T11:16:58;4.57;;;2.88;;
3141;SDS011;1581;51.568;6.998;2023-08-24T11:19:28;9.20;;;3.10;;
3141;SDS011;1581;51.568;6.998;2023-08-24T11:21:57;2.80;;;2.50;;
3141;SDS011;1581;51.568;6.998;2023-08-24T11:24:25;4.07;;;2.75;;
3141;SDS011;1581;51.568;6.998;2023-08-24T11:26:54;4.97;;;2.10;;
3141;SDS011;1581;51.568;6.998;2023-08-24T11:29:21;2.85;;;2.47;;
3141;SDS011;1581;51.568;6.998;2023-08-24T11:31:51;4.45;;;2.55;;
3141;SDS011;1581;51.568;6.998;2023-08-24T11:34:21;3.35;;;2.22;;
3141;SDS011;1581;51.568;6.998;2023-08-24T11:36:48;2.33;;;2.13;;
3141;SDS011;1581;51.568;6.998;2023-08-24T11:39:17;7.10;;;2.75;;
3141;SDS011;1581;51.568;6.998;2023-08-24T11:41:57;3.45;;;2.15;;
3141;SDS011;1581;51.568;6.998;2023-08-24T11:44:27;8.48;;;2.63;;
3141;SDS011;1581;51.568;6.998;2023-08-24T11:46:55;6.10;;;2.33;;
3141;SDS011;1581;51.568;6.998;2023-08-24T11:49:27;4.50;;;2.08;;
3141;SDS011;1581;51.568;6.998;2023-08-24T11:51:58;2.58;;;2.38;;
3141;SDS011;1581;51.568;6.998;2023-08-24T11:54:32;4.30;;;1.90;;
3141;SDS011;1581;51.568;6.998;2023-08-24T11:57:05;3.35;;;1.70;;
3141;SDS011;1581;51.568;6.998;2023-08-24T11:59:36;3.03;;;2.05;;
3141;SDS011;1581;51.568;6.998;2023-08-24T12:02:05;3.80;;;2.50;;
3141;SDS011;1581;51.568;6.998;2023-08-24T12:04:39;4.18;;;2.28;;
3141;SDS011;1581;51.568;6.998;2023-08-24T12:07:08;5.97;;;2.20;;
3141;SDS011;1581;51.568;6.998;2023-08-24T12:09:37;5.72;;;2.33;;
3141;SDS011;1581;51.568;6.998;2023-08-24T12:12:05;3.17;;;2.40;;
3141;SDS011;1581;51.568;6.998;2023-08-24T12:14:41;4.55;;;2.17;;
3141;SDS011;1581;51.568;6.998;2023-08-24T12:17:10;4.38;;;2.17;;
3141;SDS011;1581;51.568;6.998;2023-08-24T12:19:42;3.80;;;1.90;;
3141;SDS011;1581;51.568;6.998;2023-08-24T12:22:12;3.60;;;1.75;;
3141;SDS011;1581;51.568;6.998;2023-08-24T12:24:43;2.47;;;2.22;;
3141;SDS011;1581;51.568;6.998;2023-08-24T12:27:17;5.75;;;1.90;;
3141;SDS011;1581;51.568;6.998;2023-08-24T12:29:46;2.00;;;1.90;;
3141;SDS011;1581;51.568;6.998;2023-08-24T12:32:14;3.22;;;1.95;;
3141;SDS011;1581;51.568;6.998;2023-08-24T12:34:47;3.50;;;2.13;;
3141;SDS011;1581;51.568;6.998;2023-08-24T12:37:17;6.72;;;2.72;;
3141;SDS011;1581;51.568;6.998;2023-08-24T12:39:45;5.05;;;2.50;;
3141;SDS011;1581;51.568;6.998;2023-08-24T12:42:13;8.27;;;2.53;;
3141;SDS011;1581;51.568;6.998;2023-08-24T12:44:42;2.33;;;2.13;;
3141;SDS011;1581;51.568;6.998;2023-08-24T12:47:10;3.65;;;2.20;;
3141;SDS011;1581;51.568;6.998;2023-08-24T12:49:38;5.00;;;2.25;;
3141;SDS011;1581;51.568;6.998;2023-08-24T12:52:08;4.88;;;2.20;;
3141;SDS011;1581;51.568;6.998;2023-08-24T12:54:38;7.35;;;2.95;;
3141;SDS011;1581;51.568;6.998;2023-08-24T12:57:06;2.38;;;1.98;;
3141;SDS011;1581;51.568;6.998;2023-08-24T12:59:34;4.63;;;2.10;;
3141;SDS011;1581;51.568;6.998;2023-08-24T13:02:02;6.53;;;3.00;;
3141;SDS011;1581;51.568;6.998;2023-08-24T13:04:31;6.68;;;2.30;;
3141;SDS011;1581;51.568;6.998;2023-08-24T13:06:59;6.22;;;2.03;;
3141;SDS011;1581;51.568;6.998;2023-08-24T13:09:28;5.97;;;2.92;;
3141;SDS011;1581;51.568;6.998;2023-08-24T13:11:56;7.15;;;2.78;;
3141;SDS011;1581;51.568;6.998;2023-08-24T13:14:24;5.75;;;2.65;;
3141;SDS011;1581;51.568;6.998;2023-08-24T13:16:51;4.75;;;2.53;;
3141;SDS011;1581;51.568;6.998;2023-08-24T13:19:19;8.05;;;2.58;;
3141;SDS011;1581;51.568;6.998;2023-08-24T13:21:47;4.30;;;2.75;;
3141;SDS011;1581;51.568;6.998;2023-08-24T13:24:15;6.85;;;3.17;;
3141;SDS011;1581;51.568;6.998;2023-08-24T13:26:44;7.28;;;2.38;;
3141;SDS011;1581;51.568;6.998;2023-08-24T13:29:12;3.55;;;2.53;;
3141;SDS011;1581;51.568;6.998;2023-08-24T13:31:40;5.53;;;2.85;;
3141;SDS011;1581;51.568;6.998;2023-08-24T13:34:08;5.93;;;3.08;;
3141;SDS011;1581;51.568;6.998;2023-08-24T13:36:39;6.60;;;3.03;;
3141;SDS011;1581;51.568;6.998;2023-08-24T13:39:07;5.15;;;2.70;;
3141;SDS011;1581;51.568;6.998;2023-08-24T13:41:36;5.30;;;2.80;;
3141;SDS011;1581;51.568;6.998;2023-08-24T13:44:05;5.20;;;2.25;;
3141;SDS011;1581;51.568;6.998;2023-08-24T13:46:33;6.97;;;2.13;;
3141;SDS011;1581;51.568;6.998;2023-08-24T13:49:01;3.70;;;2.35;;
3141;SDS011;1581;51.568;6.998;2023-08-24T13:51:29;5.10;;;2.03;;
3141;SDS011;1581;51.568;6.998;2023-08-24T13:53:57;6.07;;;2.78;;
3141;SDS011;1581;51.568;6.998;2023-08-24T13:56:25;5.03;;;2.75;;
3141;SDS011;1581;51.568;6.998;2023-08-24T13:58:53;3.55;;;2.38;;
3141;SDS011;1581;51.568;6.998;2023-08-24T14:01:22;4.43;;;2.40;;
3141;SDS011;1581;51.568;6.998;2023-08-24T14:03:50;4.55;;;2.55;;
3141;SDS011;1581;51.568;6.998;2023-08-24T14:06:17;10.00;;;2.85;;
3141;SDS011;1581;51.568;6.998;2023-08-24T14:08:46;4.47;;;2.63;;
3141;SDS011;1581;51.568;6.998;2023-08-24T14:11:14;7.45;;;2.92;;
3141;SDS011;1581;51.568;6.998;2023-08-24T14:13:42;10.05;;;3.00;;
3141;SDS011;1581;51.568;6.998;2023-08-24T14:16:10;9.38;;;3.00;;
3141;SDS011;1581;51.568;6.998;2023-08-24T14:18:40;3.70;;;2.28;;
3141;SDS011;1581;51.568;6.998;2023-08-24T14:21:08;9.18;;;3.08;;
3141;SDS011;1581;51.568;6.998;2023-08-24T14:23:36;4.85;;;2.88;;
3141;SDS011;1581;51.568;6.998;2023-08-24T14:26:04;8.00;;;2.58;;
3141;SDS011;1581;51.568;6.998;2023-08-24T14:28:46;4.35;;;2.38;;
3141;SDS011;1581;51.568;6.998;2023-08-24T14:31:15;6.32;;;2.78;;
3141;SDS011;1581;51.568;6.998;2023-08-24T14:33:46;11.05;;;3.53;;
3141;SDS011;1581;51.568;6.998;2023-08-24T14:36:15;5.25;;;3.08;;
3141;SDS011;1581;51.568;6.998;2023-08-24T14:38:44;6.20;;;3.05;;
3141;SDS011;1581;51.568;6.998;2023-08-24T14:41:12;11.40;;;2.88;;
3141;SDS011;1581;51.568;6.998;2023-08-24T14:43:41;6.70;;;2.95;;
3141;SDS011;1581;51.568;6.998;2023-08-24T14:46:10;6.43;;;3.03;;
3141;SDS011;1581;51.568;6.998;2023-08-24T14:48:38;5.28;;;2.58;;
3141;SDS011;1581;51.568;6.998;2023-08-24T14:51:07;6.22;;;3.20;;
3141;SDS011;1581;51.568;6.998;2023-08-24T14:53:36;7.70;;;3.00;;
3141;SDS011;1581;51.568;6.998;2023-08-24T14:56:04;4.18;;;2.55;;
3141;SDS011;1581;51.568;6.998;2023-08-24T14:58:32;6.80;;;2.92;;
3141;SDS011;1581;51.568;6.998;2023-08-24T15:01:00;5.32;;;2.88;;
3141;SDS011;1581;51.568;6.998;2023-08-24T15:03:30;6.75;;;3.25;;
3141;SDS011;1581;51.568;6.998;2023-08-24T15:05:58;7.18;;;3.22;;
3141;SDS011;1581;51.568;6.998;2023-08-24T15:08:30;7.65;;;3.05;;
3141;SDS011;1581;51.568;6.998;2023-08-24T15:11:00;7.20;;;2.83;;
3141;SDS011;1581;51.568;6.998;2023-08-24T15:13:29;5.57;;;2.70;;
3141;SDS011;1581;51.568;6.998;2023-08-24T15:15:57;7.53;;;3.60;;
3141;SDS011;1581;51.568;6.998;2023-08-24T15:18:25;6.25;;;3.13;;
3141;SDS011;1581;51.568;6.998;2023-08-24T15:20:53;6.13;;;2.95;;
3141;SDS011;1581;51.568;6.998;2023-08-24T15:23:22;9.80;;;3.10;;
3141;SDS011;1581;51.568;6.998;2023-08-24T15:25:53;7.82;;;3.65;;